Time;durP1;ratioP1;P1;durP2;ratioP2;P2;SDS_P1;SDS_P2;PMS_P1;PMS_P2;Temp;Humidity;BMP_temperature;BMP_pressure;BME280_temperature;BME280_humidity;BME280_pressure;Samples;Min_cycle;Max_cycle;Signal;HPM_P1;HPM_P2
2022/12/21 00:02:03;;;;;;;;;;;;;;;14.60;100.00;98728.75;5021952;28;19921;-44
2022/12/21 00:04:28;;;;;;;;;;;;;;;14.69;100.00;98724.00;5022321;28;19917;-45
2022/12/21 00:06:53;;;;;;;;;;;;;;;14.70;100.00;98716.13;5022233;28;19925;-46
2022/12/21 00:09:19;;;;;;;;;;;;;;;15.14;100.00;98717.25;5021431;28;20607;-45
2022/12/21 00:11:44;;;;;;;;;;;;;;;15.05;100.00;98695.22;5022561;28;20435;-46
2022/12/21 00:14:09;;;;;;;;;;;;;;;15.16;100.00;98679.91;5020688;28;19928;-44
2022/12/21 00:16:36;;;;;;;;;;;;;;;14.51;100.00;98677.38;5022554;28;19932;-44
2022/12/21 00:19:01;;;;;;;;;;;;;;;15.14;100.00;98683.50;5021484;28;20742;-44
2022/12/21 00:21:27;;;;;;;;;;;;;;;14.99;100.00;98667.91;5021950;28;20023;-45
2022/12/21 00:23:53;;;;;;;;;;;;;;;15.27;100.00;98666.34;5021535;28;19967;-44
2022/12/21 00:26:22;;;;;;;;;;;;;;;14.95;100.00;98660.38;5019699;28;20548;-44
2022/12/21 00:28:49;;;;;;;;;;;;;;;15.16;100.00;98679.91;5020474;28;19928;-45
2022/12/21 00:31:15;;;;;;;;;;;;;;;14.59;100.00;98664.88;5022400;28;19963;-44
2022/12/21 00:33:40;;;;;;;;;;;;;;;15.18;100.00;98688.44;5022205;28;19924;-44
2022/12/21 00:36:06;;;;;;;;;;;;;;;14.64;100.00;98686.22;5021821;28;19928;-44
2022/12/21 00:38:31;;;;;;;;;;;;;;;14.56;100.00;98700.50;5020751;28;19985;-44
2022/12/21 00:40:58;;;;;;;;;;;;;;;14.79;100.00;98723.41;5022234;28;19923;-44
2022/12/21 00:43:23;;;;;;;;;;;;;;;14.59;100.00;98721.88;5020963;28;19948;-44
2022/12/21 00:45:48;;;;;;;;;;;;;;;14.71;100.00;98743.75;5022116;28;19960;-44
2022/12/21 00:48:13;;;;;;;;;;;;;;;14.44;100.00;98738.22;5020165;28;19928;-44
2022/12/21 00:50:38;;;;;;;;;;;;;;;14.58;100.00;98751.31;5022110;28;19921;-45
2022/12/21 00:53:04;;;;;;;;;;;;;;;14.89;100.00;98752.28;5021305;28;20660;-45
2022/12/21 00:55:29;;;;;;;;;;;;;;;14.76;100.00;98746.09;5020244;28;20319;-44
2022/12/21 00:57:54;;;;;;;;;;;;;;;14.96;100.00;98756.25;5021261;28;20613;-44
2022/12/21 01:00:20;;;;;;;;;;;;;;;14.72;100.00;98742.81;5020006;28;19930;-44
2022/12/21 01:02:45;;;;;;;;;;;;;;;14.50;100.00;98760.38;5020599;28;20370;-45
2022/12/21 01:05:10;;;;;;;;;;;;;;;14.64;100.00;98770.88;5019778;28;19939;-44
2022/12/21 01:07:35;;;;;;;;;;;;;;;14.12;100.00;98774.38;5021688;28;19925;-45
2022/12/21 01:10:01;;;;;;;;;;;;;;;13.97;100.00;98783.72;5020807;28;19920;-45
2022/12/21 01:12:26;;;;;;;;;;;;;;;13.91;100.00;98796.13;5020534;28;19932;-44
2022/12/21 01:14:51;;;;;;;;;;;;;;;14.27;100.00;98813.38;5020976;28;19982;-45
2022/12/21 01:17:16;;;;;;;;;;;;;;;14.32;100.00;98816.56;5021090;28;20047;-44
2022/12/21 01:19:41;;;;;;;;;;;;;;;13.89;100.00;98819.53;5019781;28;20950;-44
2022/12/21 01:22:07;;;;;;;;;;;;;;;14.04;100.00;98849.00;5020963;28;20915;-44
2022/12/21 01:24:32;;;;;;;;;;;;;;;13.58;100.00;98846.03;5020798;28;19944;-44
2022/12/21 01:26:57;;;;;;;;;;;;;;;14.43;100.00;98892.81;5021376;28;19921;-44
2022/12/21 01:29:22;;;;;;;;;;;;;;;13.88;100.00;98871.38;5018531;28;19967;-44
2022/12/21 01:31:48;;;;;;;;;;;;;;;14.22;100.00;98889.53;5019943;28;19967;-44
2022/12/21 01:34:13;;;;;;;;;;;;;;;13.23;100.00;98866.56;5020687;28;19920;-44
2022/12/21 01:36:38;;;;;;;;;;;;;;;13.15;100.00;98895.31;5019322;28;19936;-44
2022/12/21 01:39:03;;;;;;;;;;;;;;;13.26;91.52;98922.47;5018613;28;19925;-45
2022/12/21 01:41:29;;;;;;;;;;;;;;;13.57;85.31;98945.25;5020441;28;19928;-46
2022/12/21 01:44:01;;;;;;;;;;;;;;;13.62;87.40;98953.66;5021185;28;20743;-45
2022/12/21 01:46:41;;;;;;;;;;;;;;;13.93;89.70;98967.78;5019800;28;19932;-44
2022/12/21 01:49:21;;;;;;;;;;;;;;;13.83;84.02;98971.72;5020769;28;19917;-44
2022/12/21 01:51:49;;;;;;;;;;;;;;;13.97;84.51;98979.66;5020893;28;20016;-44
2022/12/21 01:54:19;;;;;;;;;;;;;;;13.70;86.28;98977.41;5020086;28;19999;-44
2022/12/21 01:56:45;;;;;;;;;;;;;;;14.33;86.61;98994.41;5018487;28;19928;-44
2022/12/21 01:59:29;;;;;;;;;;;;;;;14.54;95.44;98983.03;5017567;28;19944;-44
2022/12/21 02:01:54;;;;;;;;;;;;;;;14.10;100.00;98957.47;5017577;28;19956;-44
2022/12/21 02:04:19;;;;;;;;;;;;;;;14.73;100.00;98957.03;5018691;28;19972;-44
2022/12/21 02:06:49;;;;;;;;;;;;;;;14.73;100.00;98941.47;5020189;28;20016;-44
2022/12/21 02:09:15;;;;;;;;;;;;;;;15.03;100.00;98918.38;5017778;28;19968;-44
2022/12/21 02:11:40;;;;;;;;;;;;;;;14.90;100.00;98891.38;5016892;28;19983;-45
2022/12/21 02:14:11;;;;;;;;;;;;;;;14.99;100.00;98880.53;5019509;28;20451;-44
2022/12/21 02:16:57;;;;;;;;;;;;;;;14.69;100.00;98871.72;5020111;28;20374;-45
2022/12/21 02:19:26;;;;;;;;;;;;;;;14.43;100.00;98887.63;5017545;28;19924;-44
2022/12/21 02:21:51;;;;;;;;;;;;;;;13.76;100.00;98902.09;5018199;28;20374;-44
2022/12/21 02:24:39;;;;;;;;;;;;;;;14.25;100.00;98926.56;5019094;28;19932;-44
2022/12/21 02:27:08;;;;;;;;;;;;;;;13.24;100.00;98925.13;5013265;28;20255;-44
2022/12/21 02:29:51;;;;;;;;;;;;;;;13.62;100.00;98958.00;5017952;28;19917;-44
2022/12/21 02:32:16;;;;;;;;;;;;;;;13.88;98.94;98967.16;5018675;28;19960;-44
2022/12/21 02:34:49;;;;;;;;;;;;;;;13.93;100.00;98960.00;5019632;28;19921;-44
2022/12/21 02:37:22;;;;;;;;;;;;;;;14.16;100.00;98957.19;5016534;28;19921;-44
2022/12/21 02:39:56;;;;;;;;;;;;;;;14.09;100.00;98935.06;5015501;28;20020;-44
2022/12/21 02:45:18;;;;;;;;;;;;;;;13.83;100.00;98922.53;5016326;28;19928;-44
2022/12/21 02:47:49;;;;;;;;;;;;;;;13.56;100.00;98918.53;5016948;28;19928;-44
2022/12/21 02:50:14;;;;;;;;;;;;;;;13.55;100.00;98932.38;5016824;28;20537;-44
2022/12/21 02:52:41;;;;;;;;;;;;;;;13.27;97.43;98956.00;5018696;28;19928;-44
2022/12/21 02:55:08;;;;;;;;;;;;;;;13.21;92.95;98966.63;5016202;28;19917;-45
2022/12/21 02:57:35;;;;;;;;;;;;;;;13.35;88.96;98974.66;5017448;28;19971;-44
2022/12/21 03:00:00;;;;;;;;;;;;;;;13.26;86.58;98985.38;5015978;28;19925;-44
2022/12/21 03:02:49;;;;;;;;;;;;;;;13.55;83.43;99001.41;5015445;28;20314;-44
2022/12/21 03:05:17;;;;;;;;;;;;;;;13.65;85.17;99007.84;5007387;28;19952;-44
2022/12/21 03:07:51;;;;;;;;;;;;;;;13.57;89.99;99005.63;5017460;28;19968;-44
2022/12/21 03:10:35;;;;;;;;;;;;;;;13.61;89.43;99006.28;5017949;28;19921;-44
2022/12/21 03:13:04;;;;;;;;;;;;;;;13.48;92.32;98994.81;5018771;28;19925;-44
2022/12/21 03:15:50;;;;;;;;;;;;;;;13.47;94.12;98993.97;5016800;28;20396;-44
2022/12/21 03:18:26;;;;;;;;;;;;;;;13.60;92.69;98996.88;5016653;28;19921;-44
2022/12/21 03:20:51;;;;;;;;;;;;;;;13.80;91.48;99007.16;5033115;28;19960;-44
2022/12/21 03:23:18;;;;;;;;;;;;;;;14.13;94.85;98996.16;5018383;28;20000;-44
2022/12/21 03:25:48;;;;;;;;;;;;;;;14.22;100.00;98972.44;5017351;28;19975;-44
2022/12/21 03:28:14;;;;;;;;;;;;;;;13.77;100.00;98955.53;5015753;28;19925;-44
2022/12/21 03:30:43;;;;;;;;;;;;;;;14.35;100.00;98966.69;5017936;28;20004;-44
2022/12/21 03:33:10;;;;;;;;;;;;;;;14.44;100.00;98948.94;5016401;28;19948;-44
2022/12/21 03:35:54;;;;;;;;;;;;;;;13.72;100.00;98926.44;5018995;28;20068;-44
2022/12/21 03:38:21;;;;;;;;;;;;;;;13.62;100.00;98945.91;5016869;28;19925;-44
2022/12/21 03:40:47;;;;;;;;;;;;;;;14.00;100.00;98938.09;5018108;28;19952;-44
2022/12/21 03:43:39;;;;;;;;;;;;;;;14.45;100.00;98939.41;5015673;28;19931;-44
2022/12/21 03:46:06;;;;;;;;;;;;;;;13.99;100.00;98913.13;5013314;28;19925;-44
2022/12/21 03:48:31;;;;;;;;;;;;;;;14.37;100.00;98918.22;5019376;28;20651;-44
2022/12/21 03:50:58;;;;;;;;;;;;;;;14.28;100.00;98898.78;5021394;28;19929;-44
2022/12/21 03:53:26;;;;;;;;;;;;;;;14.48;100.00;98890.00;5020906;28;19924;-44
2022/12/21 03:55:52;;;;;;;;;;;;;;;14.06;100.00;98873.06;5021086;28;19953;-44
2022/12/21 03:58:17;;;;;;;;;;;;;;;14.52;100.00;98886.34;5019297;28;20294;-44
2022/12/21 04:01:00;;;;;;;;;;;;;;;14.53;100.00;98862.13;5019606;28;19914;-44
2022/12/21 04:03:27;;;;;;;;;;;;;;;14.82;100.00;98844.25;5017968;28;19999;-43
2022/12/21 04:05:53;;;;;;;;;;;;;;;14.70;100.00;98821.59;5019909;28;19925;-44
2022/12/21 04:08:19;;;;;;;;;;;;;;;15.06;100.00;98814.47;5019367;28;20008;-44
2022/12/21 04:10:45;;;;;;;;;;;;;;;14.79;100.00;98790.00;5021256;28;19917;-44
2022/12/21 04:13:10;;;;;;;;;;;;;;;15.02;100.00;98771.44;5021308;28;19936;-44
2022/12/21 04:19:57;;;;;;;;;;;;;;;15.29;100.00;98750.13;5021037;28;19939;-44
2022/12/21 04:21:04;;;;;;;;;;;;;;;15.07;100.00;98721.91;5019862;28;20359;-44
2022/12/21 04:28:57;;;;;;;;;;;;;;;14.44;100.00;98728.69;5019601;28;19955;-44
2022/12/21 04:31:23;;;;;;;;;;;;;;;14.61;100.00;98747.72;5020975;28;19921;-44
2022/12/21 04:33:48;;;;;;;;;;;;;;;14.85;100.00;98740.41;5020920;28;19921;-44
2022/12/21 04:38:58;;;;;;;;;;;;;;;14.88;100.00;98737.66;4997985;28;19921;-44
2022/12/21 04:41:24;;;;;;;;;;;;;;;14.79;100.00;98728.59;5021533;28;19951;-44
2022/12/21 04:43:49;;;;;;;;;;;;;;;14.85;100.00;98730.06;5021367;28;19932;-44
2022/12/21 04:46:15;;;;;;;;;;;;;;;14.74;100.00;98709.88;5020525;28;19929;-44
2022/12/21 04:48:41;;;;;;;;;;;;;;;15.30;100.00;98707.69;5018864;28;20380;-44
2022/12/21 04:51:10;;;;;;;;;;;;;;;15.14;100.00;98688.72;5020342;28;20008;-44
2022/12/21 04:53:35;;;;;;;;;;;;;;;14.93;100.00;98676.00;5036282;28;19925;-44
2022/12/21 04:56:01;;;;;;;;;;;;;;;15.16;100.00;98679.09;5019993;28;19928;-44
2022/12/21 04:58:26;;;;;;;;;;;;;;;15.21;100.00;98656.31;5020186;28;19932;-44
2022/12/21 05:00:52;;;;;;;;;;;;;;;15.14;100.00;98652.41;5019289;28;20778;-44
2022/12/21 05:03:19;;;;;;;;;;;;;;;15.11;100.00;98649.97;5018893;28;19963;-44
2022/12/21 05:05:44;;;;;;;;;;;;;;;15.13;100.00;98640.34;5020474;28;20341;-44
2022/12/21 05:08:09;;;;;;;;;;;;;;;15.20;100.00;98633.91;5019118;28;19929;-45
2022/12/21 05:10:34;;;;;;;;;;;;;;;15.22;100.00;98632.06;5018954;28;19921;-44
2022/12/21 05:13:00;;;;;;;;;;;;;;;15.27;100.00;98628.25;5018993;28;20725;-44
2022/12/21 05:15:25;;;;;;;;;;;;;;;15.16;100.00;98622.03;5019308;28;20439;-44
2022/12/21 05:17:50;;;;;;;;;;;;;;;15.08;100.00;98613.84;5019928;28;20328;-44
2022/12/21 05:20:15;;;;;;;;;;;;;;;14.62;100.00;98602.53;5020535;28;20573;-44
2022/12/21 05:22:43;;;;;;;;;;;;;;;13.17;100.00;98629.78;5019855;28;19915;-44
2022/12/21 05:25:08;;;;;;;;;;;;;;;13.60;100.00;98701.91;5020114;28;19921;-44
2022/12/21 05:27:34;;;;;;;;;;;;;;;14.34;100.00;98706.75;5020236;28;19932;-44
2022/12/21 05:29:59;;;;;;;;;;;;;;;14.55;100.00;98694.50;5021490;28;19972;-44
2022/12/21 05:32:24;;;;;;;;;;;;;;;14.78;100.00;98684.59;5021997;28;20111;-44
2022/12/21 05:34:49;;;;;;;;;;;;;;;14.22;100.00;98661.63;5019538;28;19967;-45
2022/12/21 05:37:15;;;;;;;;;;;;;;;14.64;100.00;98665.47;5020393;28;19928;-44
2022/12/21 05:39:40;;;;;;;;;;;;;;;13.92;100.00;98642.50;5019347;28;19920;-43
2022/12/21 05:42:05;;;;;;;;;;;;;;;13.92;100.00;98678.75;5020324;28;19971;-44
2022/12/21 05:44:31;;;;;;;;;;;;;;;13.44;100.00;98690.63;5019994;28;19921;-44
2022/12/21 05:46:56;;;;;;;;;;;;;;;13.44;100.00;98712.16;5020056;28;20019;-44
2022/12/21 05:49:21;;;;;;;;;;;;;;;13.35;100.00;98721.19;5019993;28;19913;-44
2022/12/21 05:51:47;;;;;;;;;;;;;;;13.28;100.00;98740.50;5019529;28;19925;-44
2022/12/21 05:54:12;;;;;;;;;;;;;;;13.05;100.00;98751.88;5019372;28;19924;-45
2022/12/21 05:56:38;;;;;;;;;;;;;;;13.19;100.00;98761.59;5017931;28;19927;-45
2022/12/21 05:59:03;;;;;;;;;;;;;;;12.86;100.00;98769.13;5016958;28;20410;-44
2022/12/21 06:01:29;;;;;;;;;;;;;;;12.97;100.00;98792.75;5019661;28;19916;-44
2022/12/21 06:03:54;;;;;;;;;;;;;;;13.00;100.00;98804.69;5018236;28;19917;-44
2022/12/21 06:06:20;;;;;;;;;;;;;;;12.65;100.00;98822.59;5018614;28;19925;-44
2022/12/21 06:08:45;;;;;;;;;;;;;;;12.87;100.00;98838.84;5019336;28;20440;-44
2022/12/21 06:11:11;;;;;;;;;;;;;;;12.37;100.00;98828.94;5019828;28;20167;-44
2022/12/21 06:13:37;;;;;;;;;;;;;;;12.69;100.00;98855.16;5019553;28;19917;-44
2022/12/21 06:16:06;;;;;;;;;;;;;;;12.65;100.00;98861.34;5019839;28;19928;-44
2022/12/21 06:18:32;;;;;;;;;;;;;;;12.54;100.00;98862.66;5017869;28;20075;-44
2022/12/21 06:20:57;;;;;;;;;;;;;;;12.78;97.84;98875.44;5019099;28;20757;-44
2022/12/21 06:23:22;;;;;;;;;;;;;;;12.47;98.72;98871.53;5018583;28;20055;-44
2022/12/21 06:25:48;;;;;;;;;;;;;;;12.70;96.29;98885.25;5019771;28;19916;-44
2022/12/21 06:28:13;;;;;;;;;;;;;;;13.04;96.70;98896.72;5018799;28;20289;-43
2022/12/21 06:30:38;;;;;;;;;;;;;;;12.83;100.00;98883.81;5020596;28;19991;-44
2022/12/21 06:33:03;;;;;;;;;;;;;;;12.88;100.00;98887.03;5020889;28;19959;-43
2022/12/21 06:35:28;;;;;;;;;;;;;;;12.97;100.00;98888.38;5036275;28;19979;-43
2022/12/21 06:37:54;;;;;;;;;;;;;;;13.06;100.00;98887.16;5021398;28;20536;-42
2022/12/21 06:40:19;;;;;;;;;;;;;;;12.95;100.00;98882.44;5020416;28;19971;-43
2022/12/21 06:42:44;;;;;;;;;;;;;;;13.10;100.00;98891.28;5020370;28;19917;-44
2022/12/21 06:45:09;;;;;;;;;;;;;;;13.78;100.00;98899.44;5020591;28;19921;-43
2022/12/21 06:47:35;;;;;;;;;;;;;;;14.32;100.00;98863.19;5020887;28;19920;-44
2022/12/21 06:50:00;;;;;;;;;;;;;;;14.33;100.00;98832.03;5019191;28;20813;-44
2022/12/21 06:52:25;;;;;;;;;;;;;;;14.40;100.00;98791.13;5020366;28;20402;-44
2022/12/21 06:54:50;;;;;;;;;;;;;;;14.03;100.00;98756.72;5020341;28;20517;-44
2022/12/21 06:57:16;;;;;;;;;;;;;;;14.13;100.00;98749.31;5020131;28;20036;-44
2022/12/21 06:59:42;;;;;;;;;;;;;;;14.30;100.00;98740.66;5017745;28;20003;-44
2022/12/21 07:02:08;;;;;;;;;;;;;;;14.15;100.00;98722.41;5020204;28;19917;-44
2022/12/21 07:04:33;;;;;;;;;;;;;;;14.02;100.00;98716.19;5017497;28;19967;-44
2022/12/21 07:06:58;;;;;;;;;;;;;;;14.20;100.00;98722.19;5020229;28;19925;-44
2022/12/21 07:09:24;;;;;;;;;;;;;;;13.62;100.00;98714.78;5019438;28;19931;-44
2022/12/21 07:11:52;;;;;;;;;;;;;;;13.54;100.00;98733.22;5020329;28;19917;-44
2022/12/21 07:14:17;;;;;;;;;;;;;;;13.64;100.00;98757.75;5018442;28;20378;-44
2022/12/21 07:16:42;;;;;;;;;;;;;;;13.51;100.00;98769.63;5019475;28;19929;-44
2022/12/21 07:19:07;;;;;;;;;;;;;;;13.55;100.00;98773.72;5018479;28;19951;-44
2022/12/21 07:21:33;;;;;;;;;;;;;;;13.62;100.00;98767.34;5018663;28;20010;-44
2022/12/21 07:23:58;;;;;;;;;;;;;;;13.39;100.00;98768.44;5022143;28;19964;-44
2022/12/21 07:26:23;;;;;;;;;;;;;;;13.13;100.00;98777.38;5023096;28;19932;-44
2022/12/21 07:28:49;;;;;;;;;;;;;;;12.86;100.00;98785.47;5021779;28;19917;-44
2022/12/21 07:31:18;;;;;;;;;;;;;;;12.90;100.00;98807.69;5022700;28;19917;-44
2022/12/21 07:33:44;;;;;;;;;;;;;;;12.35;100.00;98825.59;5022676;28;20370;-44
2022/12/21 07:36:10;;;;;;;;;;;;;;;12.61;100.00;98862.38;5022422;28;19921;-44
2022/12/21 07:38:35;;;;;;;;;;;;;;;12.64;100.00;98878.59;5021678;28;19917;-44
2022/12/21 07:41:02;;;;;;;;;;;;;;;12.77;98.18;98894.41;5022203;28;19921;-44
2022/12/21 07:43:27;;;;;;;;;;;;;;;12.44;97.99;98887.19;5021922;28;19920;-44
2022/12/21 07:45:53;;;;;;;;;;;;;;;13.66;93.91;98926.75;5022446;28;19969;-44
2022/12/21 07:48:18;;;;;;;;;;;;;;;14.04;100.00;98913.75;5021431;28;20697;-44
2022/12/21 07:50:45;;;;;;;;;;;;;;;14.11;100.00;98872.84;5022494;28;19913;-45
2022/12/21 07:53:10;;;;;;;;;;;;;;;14.31;100.00;98843.38;5021309;28;19952;-45
2022/12/21 07:55:35;;;;;;;;;;;;;;;13.89;100.00;98800.56;5022338;28;19999;-44
2022/12/21 07:58:00;;;;;;;;;;;;;;;13.94;100.00;98796.00;5021653;28;19945;-44
2022/12/21 08:00:26;;;;;;;;;;;;;;;14.13;100.00;98795.94;5020369;28;19917;-44
2022/12/21 08:02:51;;;;;;;;;;;;;;;14.21;100.00;98776.50;5022104;28;20318;-44
2022/12/21 08:05:19;;;;;;;;;;;;;;;14.23;100.00;98759.13;5020927;28;20387;-44
2022/12/21 08:07:45;;;;;;;;;;;;;;;13.97;100.00;98744.91;5021050;28;20031;-45
2022/12/21 08:10:10;;;;;;;;;;;;;;;14.46;100.00;98741.59;5020919;28;20032;-44
2022/12/21 08:12:36;;;;;;;;;;;;;;;14.70;100.00;98726.50;5021550;28;19939;-44
2022/12/21 08:15:01;;;;;;;;;;;;;;;14.25;100.00;98696.03;5021425;28;20447;-44
2022/12/21 08:17:26;;;;;;;;;;;;;;;14.35;100.00;98698.09;5021232;28;20438;-45
2022/12/21 08:19:51;;;;;;;;;;;;;;;14.60;100.00;98689.88;5020708;28;19917;-44
2022/12/21 08:22:16;;;;;;;;;;;;;;;14.55;100.00;98693.63;5021284;28;19921;-44
2022/12/21 08:24:42;;;;;;;;;;;;;;;13.75;100.00;98677.84;5021695;28;19917;-44
2022/12/21 08:27:07;;;;;;;;;;;;;;;13.45;100.00;98706.06;5022051;28;19925;-46
2022/12/21 08:29:32;;;;;;;;;;;;;;;12.95;100.00;98727.34;5021438;28;19928;-44
2022/12/21 08:31:57;;;;;;;;;;;;;;;13.12;100.00;98778.28;5021518;28;20420;-44
2022/12/21 08:34:23;;;;;;;;;;;;;;;13.24;100.00;98800.16;5020281;28;20083;-45
2022/12/21 08:36:48;;;;;;;;;;;;;;;13.21;100.00;98821.00;5021302;28;19917;-45
2022/12/21 08:39:13;;;;;;;;;;;;;;;13.32;100.00;98824.78;5020991;28;19933;-45
2022/12/21 08:41:38;;;;;;;;;;;;;;;13.16;100.00;98823.78;5021950;28;19925;-45
2022/12/21 08:44:04;;;;;;;;;;;;;;;13.36;100.00;98836.69;5021593;28;19923;-43
2022/12/21 08:46:29;;;;;;;;;;;;;;;12.54;100.00;98836.81;5021193;28;20035;-44
2022/12/21 08:48:54;;;;;;;;;;;;;;;12.93;100.00;98869.59;5020674;28;19960;-44
2022/12/21 08:51:20;;;;;;;;;;;;;;;12.76;100.00;98879.81;5021569;28;19917;-44
2022/12/21 08:53:46;;;;;;;;;;;;;;;12.75;99.15;98891.91;5021277;28;19917;-43
2022/12/21 08:56:12;;;;;;;;;;;;;;;12.74;97.32;98900.53;5021714;28;19913;-43
2022/12/21 08:58:37;;;;;;;;;;;;;;;13.06;95.55;98913.84;5020983;28;19952;-44
2022/12/21 09:01:02;;;;;;;;;;;;;;;13.01;94.48;98914.94;5019865;28;19923;-44
2022/12/21 09:03:27;;;;;;;;;;;;;;;13.05;93.40;98934.59;5020103;28;19924;-44
2022/12/21 09:05:54;;;;;;;;;;;;;;;12.75;93.92;98922.09;5021873;28;19921;-44
2022/12/21 09:08:19;;;;;;;;;;;;;;;13.26;88.43;98945.75;5021038;28;19920;-44
2022/12/21 09:10:44;;;;;;;;;;;;;;;13.54;90.20;98942.81;5020657;28;19920;-44
2022/12/21 09:13:09;;;;;;;;;;;;;;;13.56;96.56;98939.22;5020984;28;19921;-43
2022/12/21 09:15:38;;;;;;;;;;;;;;;13.30;98.71;98924.88;5019849;28;19917;-44
2022/12/21 09:18:03;;;;;;;;;;;;;;;13.12;98.67;98923.09;5019684;28;19936;-43
2022/12/21 09:20:28;;;;;;;;;;;;;;;13.49;97.46;98929.25;5020540;28;19917;-43
2022/12/21 09:22:53;;;;;;;;;;;;;;;13.25;99.11;98911.28;5020736;28;20059;-44
2022/12/21 09:25:19;;;;;;;;;;;;;;;13.60;96.50;98924.41;5021281;28;19948;-44
2022/12/21 09:27:44;;;;;;;;;;;;;;;13.58;100.00;98910.72;5021243;28;19921;-44
2022/12/21 09:30:09;;;;;;;;;;;;;;;13.60;100.00;98911.47;5020449;28;19932;-44
2022/12/21 09:32:35;;;;;;;;;;;;;;;13.90;100.00;98903.19;5020905;28;19913;-43
2022/12/21 09:35:00;;;;;;;;;;;;;;;13.16;100.00;98883.25;5019637;28;19917;-43
2022/12/21 09:37:25;;;;;;;;;;;;;;;13.12;100.00;98903.22;5020187;28;19962;-43
2022/12/21 09:39:50;;;;;;;;;;;;;;;13.16;97.37;98940.16;5020004;28;19924;-43
2022/12/21 09:42:18;;;;;;;;;;;;;;;13.33;94.13;98958.38;5020733;28;19936;-43
2022/12/21 09:44:50;;;;;;;;;;;;;;;12.93;91.75;98961.78;5019759;28;19971;-43
2022/12/21 09:47:18;;;;;;;;;;;;;;;13.26;82.01;98987.97;5020792;28;19968;-43
2022/12/21 09:49:45;;;;;;;;;;;;;;;13.60;81.71;98989.09;5018227;28;20314;-43
2022/12/21 09:52:21;;;;;;;;;;;;;;;13.54;84.29;98987.63;5020599;28;20016;-43
2022/12/21 09:54:54;;;;;;;;;;;;;;;13.38;82.17;98995.22;5019244;28;19917;-43
2022/12/21 09:57:19;;;;;;;;;;;;;;;13.33;82.07;99002.34;5020350;28;19948;-43
2022/12/21 09:59:44;;;;;;;;;;;;;;;13.43;80.95;99012.28;5018214;28;19921;-44
2022/12/21 10:02:28;;;;;;;;;;;;;;;13.24;82.63;99013.03;5019856;28;20785;-43
2022/12/21 10:05:06;;;;;;;;;;;;;;;13.28;82.22;99003.47;5019520;28;19924;-43
2022/12/21 10:08:00;;;;;;;;;;;;;;;13.29;85.16;98993.03;5020275;28;19928;-43
2022/12/21 10:10:45;;;;;;;;;;;;;;;13.62;83.99;99000.22;4964901;28;19937;-43
2022/12/21 10:13:29;;;;;;;;;;;;;;;13.69;82.85;99006.81;5001551;28;20477;-43
2022/12/21 10:16:13;;;;;;;;;;;;;;;13.92;84.83;98999.75;5019515;28;19913;-43
2022/12/21 10:18:58;;;;;;;;;;;;;;;13.80;90.57;98978.69;5018963;28;19921;-43
2022/12/21 10:21:38;;;;;;;;;;;;;;;14.12;92.57;98968.59;5020195;28;20409;-43
2022/12/21 10:24:04;;;;;;;;;;;;;;;13.42;100.00;98938.19;5019637;28;19983;-43
2022/12/21 10:26:29;;;;;;;;;;;;;;;13.56;89.52;98972.03;5019807;28;19921;-42
2022/12/21 10:29:10;;;;;;;;;;;;;;;14.05;89.79;98981.88;5017333;28;19996;-42
2022/12/21 10:31:45;;;;;;;;;;;;;;;14.73;96.98;98956.22;5019201;28;19917;-42
2022/12/21 10:34:15;;;;;;;;;;;;;;;14.86;100.00;98939.13;5019441;28;20761;-42
2022/12/21 10:36:41;;;;;;;;;;;;;;;14.99;100.00;98901.28;5019004;28;19924;-43
2022/12/21 10:39:08;;;;;;;;;;;;;;;14.85;100.00;98883.00;5018581;28;19917;-42
2022/12/21 10:41:35;;;;;;;;;;;;;;;15.39;100.00;98862.84;5018607;28;20018;-43
2022/12/21 10:44:01;;;;;;;;;;;;;;;15.78;100.00;98822.69;5018481;28;19967;-43
2022/12/21 10:46:33;;;;;;;;;;;;;;;15.35;100.00;98785.25;5017099;28;20008;-42
2022/12/21 10:49:06;;;;;;;;;;;;;;;14.71;100.00;98766.22;5017085;28;19917;-42
2022/12/21 10:51:34;;;;;;;;;;;;;;;14.65;100.00;98788.13;5019711;28;20358;-42
2022/12/21 10:54:01;;;;;;;;;;;;;;;14.47;100.00;98792.47;5019397;28;19940;-42
2022/12/21 10:56:27;;;;;;;;;;;;;;;14.23;100.00;98808.34;5017283;28;19955;-43
2022/12/21 10:58:52;;;;;;;;;;;;;;;14.78;100.00;98825.47;5018742;28;19917;-42
2022/12/21 11:01:26;;;;;;;;;;;;;;;13.36;100.00;98808.22;5016632;28;19917;-42
2022/12/21 11:04:12;;;;;;;;;;;;;;;12.72;100.00;98848.09;5016633;28;19967;-42
2022/12/21 11:06:37;;;;;;;;;;;;;;;13.29;98.74;98907.69;5019932;28;19932;-42
2022/12/21 11:09:08;;;;;;;;;;;;;;;13.19;96.02;98916.72;5018204;28;21038;-42
2022/12/21 11:11:37;;;;;;;;;;;;;;;13.81;93.44;98936.34;5018168;28;19921;-42
2022/12/21 11:14:02;;;;;;;;;;;;;;;13.44;97.10;98926.84;5018600;28;19923;-42
2022/12/21 11:16:28;;;;;;;;;;;;;;;13.57;97.07;98932.31;5019343;28;19933;-42
2022/12/21 11:18:54;;;;;;;;;;;;;;;13.61;95.79;98944.19;5017005;28;19960;-42
2022/12/21 11:21:20;;;;;;;;;;;;;;;12.45;99.75;98914.69;5008715;28;20000;-43
2022/12/21 11:23:52;;;;;;;;;;;;;;;12.53;87.90;98950.53;5019481;28;19939;-42
2022/12/21 11:26:17;;;;;;;;;;;;;;;12.80;79.53;98982.16;5017579;28;19921;-42
2022/12/21 11:28:42;;;;;;;;;;;;;;;13.02;81.42;98992.41;5016669;28;19986;-42
2022/12/21 11:31:08;;;;;;;;;;;;;;;12.19;82.66;98985.44;5019767;28;20003;-42
2022/12/21 11:33:33;;;;;;;;;;;;;;;12.23;79.10;99001.69;5018196;28;19917;-42
2022/12/21 11:36:24;;;;;;;;;;;;;;;12.11;74.84;99019.31;5012437;28;20605;-42
2022/12/21 11:38:50;;;;;;;;;;;;;;;11.36;73.25;99018.56;5015252;28;20521;-42
2022/12/21 11:41:15;;;;;;;;;;;;;;;10.72;51.69;98996.69;5016436;28;19932;-44
2022/12/21 11:43:48;;;;;;;;;;;;;;;10.76;37.99;99049.75;5017874;28;20450;-42
2022/12/21 11:46:13;;;;;;;;;;;;;;;10.54;35.61;99120.88;5015406;28;19924;-42
2022/12/21 11:48:52;;;;;;;;;;;;;;;10.68;35.90;99208.88;5017384;28;19916;-42
2022/12/21 11:51:26;;;;;;;;;;;;;;;10.73;41.76;99302.31;5016527;28;19917;-42
2022/12/21 11:53:54;;;;;;;;;;;;;;;10.81;44.75;99387.97;5017921;28;19924;-42
2022/12/21 11:56:34;;;;;;;;;;;;;;;10.59;48.50;99448.66;5018317;28;19979;-42
2022/12/21 11:59:07;;;;;;;;;;;;;;;10.79;50.99;99528.03;5016101;28;19924;-43
2022/12/21 12:01:47;;;;;;;;;;;;;;;10.79;52.67;99564.94;5000885;28;19921;-42
2022/12/21 12:04:31;;;;;;;;;;;;;;;10.88;54.60;99605.09;5017921;28;19913;-42
2022/12/21 12:07:03;;;;;;;;;;;;;;;11.04;56.60;99650.22;5018456;28;20509;-42
2022/12/21 12:09:28;;;;;;;;;;;;;;;10.66;59.67;99646.78;5019335;28;20552;-42
2022/12/21 12:12:06;;;;;;;;;;;;;;;11.01;60.34;99688.09;5021883;28;19967;-42
2022/12/21 12:14:40;;;;;;;;;;;;;;;10.75;61.35;99686.97;5021357;28;19966;-42
2022/12/21 12:17:20;;;;;;;;;;;;;;;10.76;62.98;99698.94;5022023;28;20404;-42
2022/12/21 12:19:54;;;;;;;;;;;;;;;10.95;62.04;99720.03;5021461;28;20405;-42
2022/12/21 12:22:49;;;;;;;;;;;;;;;11.26;61.46;99733.06;5022827;28;19925;-42
2022/12/21 12:25:17;;;;;;;;;;;;;;;11.02;61.06;99702.69;5012637;28;19971;-42
2022/12/21 12:27:48;;;;;;;;;;;;;;;10.59;60.38;99676.13;5022001;28;19968;-42
2022/12/21 12:30:18;;;;;;;;;;;;;;;11.01;58.94;99693.25;5021746;28;19917;-42
2022/12/21 12:32:43;;;;;;;;;;;;;;;11.19;56.25;99690.25;5022414;28;19917;-42
2022/12/21 12:35:17;;;;;;;;;;;;;;;11.29;53.95;99676.28;5021979;28;19925;-42
2022/12/21 12:37:51;;;;;;;;;;;;;;;11.41;50.18;99653.66;5022256;28;19924;-42
2022/12/21 12:40:35;;;;;;;;;;;;;;;11.33;48.09;99615.16;5021709;28;19924;-42
2022/12/21 12:43:14;;;;;;;;;;;;;;;11.36;45.13;99585.84;5021890;28;19940;-42
2022/12/21 12:45:44;;;;;;;;;;;;;;;11.65;42.30;99567.88;5020447;28;20370;-42
2022/12/21 12:48:19;;;;;;;;;;;;;;;11.47;41.27;99516.78;5018960;28;19921;-42
2022/12/21 12:50:51;;;;;;;;;;;;;;;11.51;39.25;99480.53;5022204;28;20424;-42
2022/12/21 12:53:16;;;;;;;;;;;;;;;11.80;37.46;99457.41;5021358;28;19940;-42
2022/12/21 12:55:47;;;;;;;;;;;;;;;11.54;39.23;99396.22;5021542;28;19935;-42
2022/12/21 12:58:15;;;;;;;;;;;;;;;11.33;40.11;99361.59;5021223;28;19956;-42
2022/12/21 13:00:48;;;;;;;;;;;;;;;10.97;41.48;99331.72;5019488;28;19924;-42